Wednesday, October 22, 2014
15:30 UTC
  |  Log In   |  Register Free
Airport Search:

Enterprise Municipal Airport
(KEDN)

Enterprise Municipal Airport Diagram
No Airport Diagram Available

FAA data valid effective September 18, 2014 - November 13, 2014 (unless otherwise noted).

 
 
 
 
 
 
 
 
 
 
 
 
 
 

Current Aviation Weather for Enterprise Municipal Airport (KEDN)

The most recent METAR observation for KEDN was updated at: 1515
METAR Summary (Translated METAR)
KEDN
221415Z AUTO 03007KT 10SM CLR 15/10 A3011 RMK AO2
KSXS
221456Z AUTO 05009G14KT 10SM CLR 17/09 A3013 RMK AO2 SLP204 T01710090 52014
(4.6 nm NE from KEDN)
KLOR
221353Z AUTO 03006KT 10SM CLR 15/11 A3010 RMK AO2 SLP190 T01500106 TSNO $
(8.3 nm NE from KEDN)
TAF Summary (Translated TAF)
KOZR
(5.2 nm SE from KLOR)
2208/2314 35006KT 9999 SKC QNH3000INS TEMPO 2215/2218 35010G15KT TX25/2220Z TN11/2210Z
  Airport Weather Conditions for KEDN

Current weather conditions are
not available for EDN


The nearest NOAA weather station
is at LOR, (8.3 nm NE from EDN)
  
 Current Weather at LOR
59° F
Fair
Northeast winds at 6.9 mph
LOR NOAA Radar

Pressure: 30.10 in
Humidity: 75%
Wind: Northeast at 6.9 MPH (6 KT)
Dew Point: 51.1°F
Visibility: 10.00 mi


Airport Weather Forecast for KEDN

Translated METAR and TAF for KLOR
Translated METAR for KLOR (1524 UTC 22 October 2014)
found at http://aviationweather.gov/adds/metars/
 
METAR text: KLOR 221453Z AUTO 03007KT 360V070 10SM CLR 18/09 A3010 RMK AO2 SLP192 T01780089 51013 TSNO $
Conditions at: KLOR (LOWE AHP/FT. RUC, AL, US) observed 1453 UTC 22 October 2014
Temperature: 17.8°C (64°F)
Dewpoint: 8.9°C (48°F) [RH = 56%]
Pressure (altimeter): 30.10 inches Hg (1019.4 mb)
[Sea-level pressure: 1019.2 mb]
Winds: from the NNE (30 degrees) at 8 MPH (7 knots; 3.6 m/s)
Visibility: 10 or more miles (16+ km)
Ceiling: at least 12,000 feet AGL
Clouds: sky clear below 12,000 feet AGL
Weather:
SOME DATA ABOVE MAY BE INACCURATE!!!
"$" is an indication the sensor requires maintenance
Translated TAF for KLOR

There is no translated TAF available for this airport

Find All Airport Services Find A Hotel Find A Rental Car Find A Golf Course Find A Restaurant $100 Hamburger



FBO's on the Field
FBO Company Facility Photos Services Transportation Aviation Fuel Prices: Prices include tax
Catering Weather Repair Courtesy Rental Type 100LL JetA JetA+ MOGAS 8087
 
Enterprise Municipal Airport

This FBO has not yet been rated
FS:Epic
Last Updated: Sep-24
Login to update fuel prices
SS:
Contact Enterprise Municipal AirportMore FBO Information
 
Add another FBO Facility Photos Catering Weather Repair Courtesy Rental Type 100LL JetA JetA+ MOGAS 8087
Services Transportation Aviation Fuel Prices: Prices include tax


model-print
model-print
model-print
model-print